createdAt,value
2023-05-04T00:02:19.679Z,5.33
2023-05-04T00:04:46.482Z,7.30
2023-05-04T00:07:13.165Z,5.90
2023-05-04T00:09:39.786Z,5.40
2023-05-04T00:12:07.015Z,6.23
2023-05-04T00:14:33.596Z,6.33
2023-05-04T00:17:00.126Z,6.37
2023-05-04T00:19:26.751Z,6.23
2023-05-04T00:21:53.493Z,6.40
2023-05-04T00:24:20.240Z,6.33
2023-05-04T00:26:46.774Z,6.50
2023-05-04T00:29:13.423Z,6.80
2023-05-04T00:31:40.011Z,6.77
2023-05-04T00:34:07.342Z,6.93
2023-05-04T00:36:34.010Z,6.77
2023-05-04T00:39:00.608Z,5.70
2023-05-04T00:41:27.283Z,6.27
2023-05-04T00:43:53.897Z,6.10
2023-05-04T00:46:21.075Z,5.67
2023-05-04T00:48:49.945Z,6.30
2023-05-04T00:51:17.146Z,6.23
2023-05-04T00:53:44.175Z,6.30
2023-05-04T00:56:11.762Z,5.87
2023-05-04T00:58:38.363Z,5.90
2023-05-04T01:01:05.026Z,6.30
2023-05-04T01:03:32.349Z,5.70
2023-05-04T01:06:08.254Z,6.33
2023-05-04T01:08:39.326Z,6.30
2023-05-04T01:11:21.209Z,5.90
2023-05-04T01:13:49.080Z,6.40
2023-05-04T01:16:15.883Z,6.70
2023-05-04T01:18:42.604Z,6.17
2023-05-04T01:21:09.800Z,6.57
2023-05-04T01:23:36.467Z,6.57
2023-05-04T01:26:32.601Z,6.90
2023-05-04T01:29:23.116Z,7.03
2023-05-04T01:31:50.050Z,6.20
2023-05-04T01:34:16.899Z,6.33
2023-05-04T01:36:44.727Z,6.20
2023-05-04T01:39:11.323Z,6.70
2023-05-04T01:41:37.868Z,6.10
2023-05-04T01:44:04.858Z,6.20
2023-05-04T01:46:31.656Z,7.43
2023-05-04T01:48:58.314Z,7.13
2023-05-04T01:51:25.079Z,7.00
2023-05-04T01:53:51.531Z,7.13
2023-05-04T01:56:18.063Z,6.93
2023-05-04T01:58:44.556Z,6.63
2023-05-04T02:01:11.020Z,7.10
2023-05-04T02:03:37.615Z,6.67
2023-05-04T02:06:04.364Z,6.87
2023-05-04T02:08:31.106Z,7.00
2023-05-04T02:10:57.577Z,5.90
2023-05-04T02:13:24.179Z,7.47
2023-05-04T02:15:50.718Z,6.90
2023-05-04T02:18:17.214Z,6.77
2023-05-04T02:20:43.684Z,7.43
2023-05-04T02:23:10.423Z,6.33
2023-05-04T02:25:39.477Z,6.53
2023-05-04T02:28:06.177Z,7.60
2023-05-04T02:30:32.664Z,6.40
2023-05-04T02:32:59.149Z,6.97
2023-05-04T02:35:25.798Z,6.93
2023-05-04T02:37:52.228Z,7.07
2023-05-04T02:40:19.189Z,7.07
2023-05-04T02:42:45.779Z,6.93
2023-05-04T02:45:12.742Z,6.93
2023-05-04T02:47:39.292Z,6.53
2023-05-04T02:50:06.700Z,6.23
2023-05-04T02:52:33.426Z,6.60
2023-05-04T02:55:01.098Z,6.17
2023-05-04T02:57:27.854Z,6.87
2023-05-04T02:59:54.335Z,6.80
2023-05-04T03:02:20.913Z,7.60
2023-05-04T03:04:47.451Z,7.10
2023-05-04T03:07:14.047Z,7.70
2023-05-04T03:09:40.960Z,6.80
2023-05-04T03:12:07.472Z,6.67
2023-05-04T03:14:33.926Z,8.63
2023-05-04T03:17:00.526Z,7.30
2023-05-04T03:19:27.213Z,7.70
2023-05-04T03:21:53.639Z,7.23
2023-05-04T03:24:20.249Z,7.73
2023-05-04T03:26:47.274Z,8.40
2023-05-04T03:29:14.439Z,8.67
2023-05-04T03:31:41.005Z,7.70
2023-05-04T03:34:09.595Z,7.87
2023-05-04T03:36:36.260Z,9.30
2023-05-04T03:39:02.945Z,7.60
2023-05-04T03:41:29.444Z,7.27
2023-05-04T03:43:56.132Z,7.30
2023-05-04T03:46:22.713Z,7.40
2023-05-04T03:48:49.173Z,8.97
2023-05-04T03:51:15.726Z,7.57
2023-05-04T03:53:44.682Z,7.80
2023-05-04T03:56:11.731Z,8.00
2023-05-04T03:58:38.198Z,8.37
2023-05-04T04:01:05.209Z,7.83
2023-05-04T04:03:32.013Z,7.57
2023-05-04T04:05:58.771Z,9.20
2023-05-04T04:08:25.335Z,8.30
2023-05-04T04:10:51.798Z,7.47
2023-05-04T04:13:18.362Z,7.33
2023-05-04T04:15:46.488Z,7.83
2023-05-04T04:18:13.127Z,7.67
2023-05-04T04:20:39.843Z,7.50
2023-05-04T04:23:06.386Z,7.93
2023-05-04T04:25:32.894Z,7.73
2023-05-04T04:27:59.538Z,6.90
2023-05-04T04:30:26.034Z,7.10
2023-05-04T04:32:53.743Z,8.03
2023-05-04T04:35:20.296Z,7.67
2023-05-04T04:37:47.103Z,7.73
2023-05-04T04:40:13.623Z,7.23
2023-05-04T04:42:40.300Z,8.10
2023-05-04T04:45:07.595Z,7.63
2023-05-04T04:47:34.123Z,7.80
2023-05-04T04:50:00.648Z,6.47
2023-05-04T04:52:27.126Z,8.03
2023-05-04T04:54:53.612Z,8.23
2023-05-04T04:57:20.175Z,8.33
2023-05-04T04:59:47.220Z,7.87
2023-05-04T05:02:13.736Z,8.17
2023-05-04T05:04:41.450Z,7.40
2023-05-04T05:07:10.532Z,7.60
2023-05-04T05:09:37.493Z,7.73
2023-05-04T05:12:07.233Z,7.40
2023-05-04T05:14:33.871Z,6.90
2023-05-04T05:17:00.587Z,8.20
2023-05-04T05:19:27.519Z,8.67
2023-05-04T05:21:54.396Z,7.30
2023-05-04T05:24:20.875Z,8.17
2023-05-04T05:26:47.575Z,8.07
2023-05-04T05:29:14.198Z,8.37
2023-05-04T05:31:41.236Z,7.20
2023-05-04T05:34:07.760Z,8.40
2023-05-04T05:36:34.590Z,8.30
2023-05-04T05:39:01.451Z,7.73
2023-05-04T05:41:27.906Z,8.33
2023-05-04T05:43:54.363Z,8.83
2023-05-04T05:46:22.681Z,9.03
2023-05-04T05:48:49.199Z,7.80
2023-05-04T05:51:15.774Z,7.80
2023-05-04T05:53:42.941Z,7.70
2023-05-04T05:56:09.404Z,7.37
2023-05-04T05:58:36.402Z,7.60
2023-05-04T06:01:03.586Z,8.13
2023-05-04T06:03:30.127Z,6.93
2023-05-04T06:05:56.672Z,7.30
2023-05-04T06:08:23.170Z,7.10
2023-05-04T06:10:51.473Z,8.37
2023-05-04T06:13:18.029Z,8.33
2023-05-04T06:15:54.707Z,7.53
2023-05-04T06:18:21.701Z,7.40
2023-05-04T06:20:48.435Z,7.67
2023-05-04T06:23:15.629Z,7.57
2023-05-04T06:25:42.296Z,8.23
2023-05-04T06:28:09.259Z,6.50
2023-05-04T06:30:36.563Z,8.17
2023-05-04T06:33:04.371Z,6.90
2023-05-04T06:35:31.477Z,7.83
2023-05-04T06:37:58.421Z,6.60
2023-05-04T06:40:26.201Z,7.00
2023-05-04T06:42:52.869Z,7.57
2023-05-04T06:45:19.552Z,7.17
2023-05-04T06:47:46.684Z,6.80
2023-05-04T06:50:14.219Z,6.97
2023-05-04T06:52:43.100Z,6.80
2023-05-04T06:55:09.844Z,6.50
2023-05-04T06:57:36.843Z,6.83
2023-05-04T07:00:04.633Z,6.90
2023-05-04T07:02:31.283Z,6.23
2023-05-04T07:04:57.975Z,6.90
2023-05-04T07:07:24.768Z,6.53
2023-05-04T07:09:51.596Z,6.33
2023-05-04T07:12:18.574Z,6.60
2023-05-04T07:14:45.074Z,6.37
2023-05-04T07:17:11.827Z,5.73
2023-05-04T07:19:38.468Z,7.00
2023-05-04T07:22:05.165Z,6.10
2023-05-04T07:24:31.878Z,6.33
2023-05-04T07:26:59.165Z,6.03
2023-05-04T07:29:26.441Z,6.50
2023-05-04T07:31:53.364Z,8.30
2023-05-04T07:34:20.202Z,7.27
2023-05-04T07:36:48.010Z,7.33
2023-05-04T07:39:16.483Z,7.33
2023-05-04T07:41:43.046Z,6.80
2023-05-04T07:44:11.178Z,6.37
2023-05-04T07:46:38.671Z,6.60
2023-05-04T07:49:05.870Z,7.53
2023-05-04T07:51:32.347Z,7.67
2023-05-04T07:53:59.082Z,6.77
2023-05-04T07:56:25.571Z,7.33
2023-05-04T07:58:52.752Z,6.90
2023-05-04T08:01:19.339Z,7.10
2023-05-04T08:03:46.005Z,7.00
2023-05-04T08:06:13.166Z,7.77
2023-05-04T08:08:39.915Z,6.50
2023-05-04T08:11:19.169Z,7.23
2023-05-04T08:13:50.619Z,6.37
2023-05-04T08:16:17.472Z,7.50
2023-05-04T08:18:44.026Z,7.00
2023-05-04T08:21:10.640Z,7.73
2023-05-04T08:23:37.134Z,6.97
2023-05-04T08:26:04.496Z,7.03
2023-05-04T08:28:33.112Z,7.43
2023-05-04T08:30:59.561Z,7.00
2023-05-04T08:33:26.041Z,7.20
2023-05-04T08:35:52.597Z,6.83
2023-05-04T08:38:19.075Z,6.37
2023-05-04T08:40:45.616Z,6.67
2023-05-04T08:43:12.290Z,7.10
2023-05-04T08:45:39.536Z,6.60
2023-05-04T08:48:07.285Z,6.73
2023-05-04T08:50:34.966Z,7.50
2023-05-04T08:53:03.889Z,6.37
2023-05-04T08:55:33.303Z,6.63
2023-05-04T08:58:02.096Z,6.50
2023-05-04T09:00:29.156Z,6.07
2023-05-04T09:02:56.446Z,6.73
2023-05-04T09:05:23.245Z,6.77
2023-05-04T09:07:52.406Z,5.87
2023-05-04T09:10:20.079Z,7.53
2023-05-04T09:12:47.239Z,6.87
2023-05-04T09:15:18.538Z,7.00
2023-05-04T09:17:58.826Z,6.27
2023-05-04T09:20:29.710Z,6.00
2023-05-04T09:23:08.970Z,6.63
2023-05-04T09:25:56.271Z,6.47
2023-05-04T09:28:43.587Z,5.63
2023-05-04T09:31:11.735Z,5.83
2023-05-04T09:33:38.260Z,5.60
2023-05-04T09:36:15.858Z,6.80
2023-05-04T09:38:42.461Z,5.53
2023-05-04T09:41:09.300Z,6.20
2023-05-04T09:43:40.290Z,6.10
2023-05-04T09:46:08.503Z,6.03
2023-05-04T09:48:35.156Z,6.00
2023-05-04T09:51:06.326Z,6.40
2023-05-04T09:53:33.268Z,4.97
2023-05-04T09:56:13.472Z,5.57
2023-05-04T09:58:42.981Z,5.70
2023-05-04T10:01:09.625Z,5.53
2023-05-04T10:03:36.501Z,6.23
2023-05-04T10:06:05.708Z,5.50
2023-05-04T10:08:33.252Z,6.17
2023-05-04T10:10:59.766Z,7.13
2023-05-04T10:13:26.414Z,6.20
2023-05-04T10:16:14.190Z,5.97
2023-05-04T10:19:19.204Z,6.70
2023-05-04T10:21:52.359Z,5.33
2023-05-04T10:24:51.146Z,5.90
2023-05-04T10:27:19.092Z,6.00
2023-05-04T10:29:51.208Z,5.93
2023-05-04T10:32:22.064Z,5.70
2023-05-04T10:34:48.850Z,5.90
2023-05-04T10:37:20.198Z,5.70
2023-05-04T10:39:54.081Z,5.10
2023-05-04T10:42:21.401Z,6.00
2023-05-04T10:44:55.454Z,6.00
2023-05-04T10:47:35.719Z,4.87
2023-05-04T10:50:11.025Z,6.67
2023-05-04T10:52:54.049Z,6.17
2023-05-04T10:55:21.455Z,6.20
2023-05-04T10:57:52.674Z,5.73
2023-05-04T11:00:19.878Z,5.63
2023-05-04T11:02:48.216Z,5.87
2023-05-04T11:05:19.448Z,6.30
2023-05-04T11:07:47.214Z,6.40
2023-05-04T11:10:22.355Z,6.53
2023-05-04T11:12:49.004Z,6.83
2023-05-04T11:15:15.780Z,6.40
2023-05-04T11:17:52.781Z,6.40
2023-05-04T11:20:23.545Z,6.97
2023-05-04T11:22:50.456Z,7.70
2023-05-04T11:25:17.475Z,7.43
2023-05-04T11:27:44.296Z,6.50
2023-05-04T11:30:11.159Z,6.40
2023-05-04T11:32:43.601Z,5.80
2023-05-04T11:35:18.695Z,6.50
2023-05-04T11:37:46.779Z,6.87
2023-05-04T11:40:23.194Z,6.53
2023-05-04T11:42:50.134Z,6.67
2023-05-04T11:45:18.762Z,5.60
2023-05-04T11:47:45.998Z,5.37
2023-05-04T11:50:14.242Z,6.00
2023-05-04T11:52:41.478Z,6.43
2023-05-04T11:55:10.079Z,6.27
2023-05-04T11:57:37.727Z,5.60
2023-05-04T12:00:06.145Z,6.20
2023-05-04T12:02:33.734Z,6.20
2023-05-04T12:05:00.801Z,5.87
2023-05-04T12:07:28.001Z,5.87
2023-05-04T12:09:54.861Z,6.10
2023-05-04T12:12:21.493Z,5.67
2023-05-04T12:14:48.618Z,6.00
2023-05-04T12:17:15.754Z,5.53
2023-05-04T12:19:55.913Z,6.00
2023-05-04T12:22:29.784Z,6.00
2023-05-04T12:25:00.252Z,5.97
2023-05-04T12:27:27.721Z,5.67
2023-05-04T12:29:54.828Z,6.67
2023-05-04T12:32:21.528Z,6.10
2023-05-04T12:34:48.059Z,5.90
2023-05-04T12:37:14.561Z,6.20
2023-05-04T12:39:41.086Z,5.37
2023-05-04T12:42:07.590Z,6.10
2023-05-04T12:44:34.593Z,6.00
2023-05-04T12:47:01.453Z,5.60
2023-05-04T12:49:28.272Z,6.70
2023-05-04T12:51:54.936Z,6.10
2023-05-04T12:54:21.643Z,5.73
2023-05-04T12:56:48.115Z,6.03
2023-05-04T12:59:15.203Z,6.17
2023-05-04T13:01:41.676Z,5.60
2023-05-04T13:04:08.218Z,6.37
2023-05-04T13:06:34.783Z,5.50
2023-05-04T13:09:05.848Z,5.03
2023-05-04T13:11:32.522Z,6.40
2023-05-04T13:13:59.016Z,6.87
2023-05-04T13:16:27.874Z,5.63
2023-05-04T13:18:55.449Z,5.80
2023-05-04T13:21:21.951Z,6.10
2023-05-04T13:23:48.492Z,5.50
2023-05-04T13:26:15.381Z,5.47
2023-05-04T13:28:43.187Z,5.37
2023-05-04T13:31:10.295Z,4.20
2023-05-04T13:33:39.798Z,5.30
2023-05-04T13:36:06.934Z,5.00
2023-05-04T13:38:33.645Z,5.30
2023-05-04T13:41:00.189Z,4.80
2023-05-04T13:43:26.960Z,5.83
2023-05-04T13:45:53.615Z,5.53
2023-05-04T13:48:20.362Z,4.97
2023-05-04T13:50:47.166Z,4.60
2023-05-04T13:53:13.745Z,4.93
2023-05-04T13:55:40.501Z,5.13
2023-05-04T13:58:07.280Z,4.50
2023-05-04T14:00:33.740Z,4.47
2023-05-04T14:03:00.664Z,5.13
2023-05-04T14:05:27.214Z,5.10
2023-05-04T14:07:53.700Z,5.40
2023-05-04T14:10:20.730Z,4.80
2023-05-04T14:12:47.234Z,5.27
2023-05-04T14:15:14.037Z,4.10
2023-05-04T14:17:40.494Z,4.00
2023-05-04T14:20:08.781Z,4.97
2023-05-04T14:22:37.889Z,4.20
2023-05-04T14:25:05.825Z,4.43
2023-05-04T14:27:35.315Z,4.57
2023-05-04T14:30:02.832Z,4.17
2023-05-04T14:32:29.361Z,4.43
2023-05-04T14:35:12.422Z,3.70
2023-05-04T14:37:39.930Z,3.97
2023-05-04T14:40:10.888Z,3.70
2023-05-04T14:42:38.310Z,4.17
2023-05-04T14:45:06.275Z,3.93
2023-05-04T14:47:33.700Z,4.23
2023-05-04T14:50:03.522Z,3.97
2023-05-04T14:52:29.979Z,3.50
2023-05-04T14:54:56.504Z,4.20
2023-05-04T14:57:23.092Z,3.67
2023-05-04T14:59:49.725Z,2.90
2023-05-04T15:02:17.584Z,3.47
2023-05-04T15:04:45.199Z,3.67
2023-05-04T15:07:14.293Z,3.47
2023-05-04T15:09:40.934Z,3.40
2023-05-04T15:12:08.606Z,3.80
2023-05-04T15:14:38.131Z,3.40
2023-05-04T15:17:05.046Z,3.53
2023-05-04T15:19:31.786Z,3.53
2023-05-04T15:21:58.196Z,3.23
2023-05-04T15:24:24.711Z,3.53
2023-05-04T15:26:51.221Z,3.23
2023-05-04T15:29:17.735Z,2.90
2023-05-04T15:31:44.382Z,3.80
2023-05-04T15:34:10.949Z,3.20
2023-05-04T15:36:37.374Z,3.53
2023-05-04T15:39:05.513Z,3.13
2023-05-04T15:41:31.953Z,3.47
2023-05-04T15:43:58.608Z,2.97
2023-05-04T15:46:25.300Z,3.17
2023-05-04T15:48:51.748Z,3.20
2023-05-04T15:51:18.897Z,2.97
2023-05-04T15:53:45.451Z,2.73
2023-05-04T15:56:13.240Z,3.53
2023-05-04T15:58:39.693Z,3.03
2023-05-04T16:01:09.244Z,3.20
2023-05-04T16:03:37.340Z,3.40
2023-05-04T16:06:05.621Z,3.20
2023-05-04T16:08:32.242Z,2.93
2023-05-04T16:10:58.681Z,3.23
2023-05-04T16:13:25.314Z,3.00
2023-05-04T16:15:52.531Z,2.93
2023-05-04T16:18:19.479Z,2.90
2023-05-04T16:20:47.167Z,3.33
2023-05-04T16:23:15.954Z,3.13
2023-05-04T16:25:42.985Z,2.97
2023-05-04T16:28:10.214Z,3.07
2023-05-04T16:30:36.962Z,3.30
2023-05-04T16:33:03.852Z,3.30
2023-05-04T16:35:31.432Z,3.20
2023-05-04T16:37:58.779Z,2.83
2023-05-04T16:40:25.705Z,3.30
2023-05-04T16:42:52.427Z,3.20
2023-05-04T16:45:19.428Z,2.97
2023-05-04T16:47:46.403Z,3.20
2023-05-04T16:50:13.527Z,2.87
2023-05-04T16:52:41.298Z,3.40
2023-05-04T16:55:11.328Z,3.40
2023-05-04T16:57:38.525Z,3.27
2023-05-04T17:00:06.705Z,2.87
2023-05-04T17:02:33.597Z,3.20
2023-05-04T17:05:00.431Z,3.40
2023-05-04T17:07:27.158Z,2.97
2023-05-04T17:09:53.699Z,3.63
2023-05-04T17:12:20.206Z,4.30
2023-05-04T17:14:47.223Z,3.07
2023-05-04T17:17:13.686Z,2.70
2023-05-04T17:19:42.958Z,7.50
2023-05-04T17:22:11.064Z,4.90
2023-05-04T17:24:37.544Z,4.20
2023-05-04T17:27:04.546Z,3.70
2023-05-04T17:29:31.283Z,3.87
2023-05-04T17:31:57.860Z,4.00
2023-05-04T17:34:24.406Z,3.73
2023-05-04T17:36:50.953Z,5.00
2023-05-04T17:39:18.747Z,4.83
2023-05-04T17:41:48.756Z,5.27
2023-05-04T17:44:16.333Z,4.17
2023-05-04T17:46:43.487Z,4.53
2023-05-04T17:49:10.152Z,3.87
2023-05-04T17:51:37.362Z,3.57
2023-05-04T17:54:03.897Z,3.73
2023-05-04T17:56:30.589Z,3.07
2023-05-04T17:58:57.080Z,3.17
2023-05-04T18:01:23.591Z,3.13
2023-05-04T18:03:50.349Z,3.37
2023-05-04T18:06:16.984Z,3.33
2023-05-04T18:08:43.502Z,3.00
2023-05-04T18:11:09.969Z,3.20
2023-05-04T18:13:36.413Z,3.00
2023-05-04T18:16:03.037Z,3.23
2023-05-04T18:18:29.784Z,3.23
2023-05-04T18:21:00.621Z,3.63
2023-05-04T18:23:27.125Z,3.00
2023-05-04T18:25:53.547Z,3.47
2023-05-04T18:28:20.041Z,3.70
2023-05-04T18:30:46.457Z,3.43
2023-05-04T18:33:12.903Z,6.40
2023-05-04T18:35:39.340Z,9.67
2023-05-04T18:38:06.048Z,5.20
2023-05-04T18:40:32.614Z,3.70
2023-05-04T18:42:59.290Z,3.60
2023-05-04T18:45:25.910Z,4.10
2023-05-04T18:47:52.647Z,3.83
2023-05-04T18:50:19.300Z,3.43
2023-05-04T18:52:46.275Z,4.40
2023-05-04T18:55:12.761Z,4.87
2023-05-04T18:57:39.327Z,3.87
2023-05-04T19:00:07.014Z,3.90
2023-05-04T19:02:33.791Z,5.00
2023-05-04T19:05:00.506Z,4.60
2023-05-04T19:07:27.015Z,4.40
2023-05-04T19:09:53.783Z,4.43
2023-05-04T19:12:20.295Z,4.10
2023-05-04T19:14:46.902Z,4.50
2023-05-04T19:17:14.744Z,7.17
2023-05-04T19:19:41.224Z,5.30
2023-05-04T19:22:08.163Z,4.70
2023-05-04T19:24:36.208Z,4.90
2023-05-04T19:27:04.373Z,4.10
2023-05-04T19:29:30.923Z,4.07
2023-05-04T19:31:59.530Z,4.20
2023-05-04T19:34:27.957Z,3.63
2023-05-04T19:36:54.375Z,4.20
2023-05-04T19:39:21.013Z,4.47
2023-05-04T19:41:47.735Z,4.40
2023-05-04T19:44:14.196Z,4.10
2023-05-04T19:46:41.417Z,5.87
2023-05-04T19:49:08.049Z,4.70
2023-05-04T19:51:34.529Z,4.47
2023-05-04T19:54:00.977Z,3.80
2023-05-04T19:56:27.592Z,4.33
2023-05-04T19:58:54.306Z,5.20
2023-05-04T20:01:20.935Z,4.43
2023-05-04T20:03:47.619Z,4.33
2023-05-04T20:06:14.154Z,3.73
2023-05-04T20:08:40.984Z,3.87
2023-05-04T20:11:07.607Z,4.13
2023-05-04T20:13:34.137Z,3.80
2023-05-04T20:16:01.788Z,4.17
2023-05-04T20:18:28.273Z,4.03
2023-05-04T20:20:55.122Z,4.10
2023-05-04T20:23:22.109Z,4.30
2023-05-04T20:25:48.865Z,4.80
2023-05-04T20:28:16.443Z,4.30
2023-05-04T20:30:42.898Z,4.07
2023-05-04T20:33:09.462Z,4.37
2023-05-04T20:35:36.054Z,4.30
2023-05-04T20:38:02.556Z,4.60
2023-05-04T20:40:29.020Z,4.20
2023-05-04T20:42:55.658Z,4.50
2023-05-04T20:45:22.332Z,4.17
2023-05-04T20:47:49.304Z,4.33
2023-05-04T20:50:17.962Z,4.40
2023-05-04T20:52:44.853Z,4.20
2023-05-04T20:55:11.466Z,3.83
2023-05-04T20:57:38.042Z,4.50
2023-05-04T21:00:05.237Z,4.07
2023-05-04T21:02:31.948Z,5.10
2023-05-04T21:04:58.569Z,4.63
2023-05-04T21:07:25.500Z,3.43
2023-05-04T21:09:58.639Z,4.33
2023-05-04T21:12:25.881Z,4.20
2023-05-04T21:14:52.518Z,4.37
2023-05-04T21:17:19.105Z,4.33
2023-05-04T21:19:45.643Z,4.70
2023-05-04T21:22:12.424Z,4.20
2023-05-04T21:24:38.868Z,4.90
2023-05-04T21:27:05.419Z,4.67
2023-05-04T21:29:31.954Z,4.80
2023-05-04T21:31:58.462Z,4.60
2023-05-04T21:34:25.114Z,5.10
2023-05-04T21:36:51.694Z,3.83
2023-05-04T21:39:18.250Z,4.37
2023-05-04T21:41:44.929Z,4.60
2023-05-04T21:44:11.565Z,4.77
2023-05-04T21:46:38.089Z,4.43
2023-05-04T21:49:04.659Z,4.77
2023-05-04T21:51:31.638Z,4.80
2023-05-04T21:53:58.160Z,4.37
2023-05-04T21:56:24.633Z,4.50
2023-05-04T21:58:51.196Z,5.00
2023-05-04T22:01:18.322Z,4.20
2023-05-04T22:03:45.075Z,5.07
2023-05-04T22:06:11.945Z,4.57
2023-05-04T22:08:38.517Z,5.53
2023-05-04T22:11:05.170Z,4.80
2023-05-04T22:13:31.659Z,4.90
2023-05-04T22:15:58.209Z,4.77
2023-05-04T22:18:24.766Z,5.47
2023-05-04T22:20:51.864Z,4.87
2023-05-04T22:23:18.369Z,5.53
2023-05-04T22:25:44.895Z,5.47
2023-05-04T22:28:11.420Z,5.20
2023-05-04T22:30:37.974Z,5.50
2023-05-04T22:33:04.738Z,5.27
2023-05-04T22:35:31.555Z,5.00
2023-05-04T22:37:58.362Z,5.33
2023-05-04T22:40:24.972Z,5.67
2023-05-04T22:42:51.447Z,4.93
2023-05-04T22:45:18.329Z,5.37
2023-05-04T22:47:46.198Z,5.60
2023-05-04T22:50:13.608Z,5.30
2023-05-04T22:52:40.428Z,5.90
2023-05-04T22:55:08.081Z,4.67
2023-05-04T22:57:35.087Z,5.30
2023-05-04T23:00:01.700Z,5.73
2023-05-04T23:02:28.423Z,5.00
2023-05-04T23:04:55.180Z,5.03
2023-05-04T23:07:21.642Z,5.40
2023-05-04T23:09:48.116Z,5.50
2023-05-04T23:12:15.352Z,5.60
2023-05-04T23:14:41.959Z,5.43
2023-05-04T23:17:09.367Z,4.90
2023-05-04T23:19:36.159Z,5.17
2023-05-04T23:22:02.618Z,6.10
2023-05-04T23:24:29.131Z,5.43
2023-05-04T23:26:55.776Z,6.60
2023-05-04T23:29:22.278Z,5.77
2023-05-04T23:31:49.122Z,5.27
2023-05-04T23:34:16.138Z,6.43
2023-05-04T23:36:42.704Z,7.20
2023-05-04T23:39:09.295Z,7.57
2023-05-04T23:41:35.836Z,7.80
2023-05-04T23:44:03.314Z,7.20
2023-05-04T23:46:29.756Z,7.07
2023-05-04T23:48:56.502Z,7.10
2023-05-04T23:51:22.949Z,7.20
2023-05-04T23:53:49.413Z,7.30
2023-05-04T23:56:15.890Z,6.97
2023-05-04T23:58:42.496Z,6.47
